createdAt,value
2018-10-17T00:00:24.271Z,17.73
2018-10-17T00:02:52.287Z,16.87
2018-10-17T00:05:20.262Z,18.53
2018-10-17T00:07:48.490Z,18.77
2018-10-17T00:10:16.494Z,18.07
2018-10-17T00:12:44.443Z,17.97
2018-10-17T00:15:12.419Z,18.40
2018-10-17T00:17:40.356Z,17.63
2018-10-17T00:20:09.382Z,18.43
2018-10-17T00:22:37.326Z,18.73
2018-10-17T00:27:39.224Z,17.33
2018-10-17T00:30:09.666Z,18.43
2018-10-17T00:32:37.643Z,18.93
2018-10-17T00:35:06.386Z,18.20
2018-10-17T00:37:34.275Z,18.53
2018-10-17T00:40:02.241Z,19.67
2018-10-17T00:42:30.518Z,19.43
2018-10-17T00:44:58.510Z,19.43
2018-10-17T00:47:26.466Z,20.87
2018-10-17T00:49:54.452Z,19.63
2018-10-17T00:52:22.446Z,19.33
2018-10-17T00:54:50.699Z,20.73
2018-10-17T00:57:18.641Z,19.37
2018-10-17T00:59:46.588Z,20.00
2018-10-17T01:02:14.550Z,20.20
2018-10-17T01:04:42.859Z,19.50
2018-10-17T01:07:10.820Z,20.37
2018-10-17T01:09:38.818Z,20.07
2018-10-17T01:12:06.790Z,19.33
2018-10-17T01:14:34.758Z,19.17
2018-10-17T01:17:02.776Z,20.57
2018-10-17T01:19:30.687Z,20.47
2018-10-17T01:21:58.634Z,20.60
2018-10-17T01:24:26.607Z,19.60
2018-10-17T01:26:54.562Z,19.53
2018-10-17T01:29:22.523Z,19.77
2018-10-17T01:31:50.486Z,19.00
2018-10-17T01:34:18.459Z,20.17
2018-10-17T01:36:46.403Z,19.63
2018-10-17T01:39:14.639Z,19.03
2018-10-17T01:41:42.603Z,19.70
2018-10-17T01:44:10.554Z,18.83
2018-10-17T01:46:38.523Z,19.53
2018-10-17T01:49:06.554Z,18.80
2018-10-17T01:51:34.503Z,18.53
2018-10-17T01:54:02.453Z,18.60
2018-10-17T01:56:34.239Z,17.47
2018-10-17T01:59:02.266Z,17.83
2018-10-17T02:01:30.154Z,17.23
2018-10-17T02:03:58.119Z,18.03
2018-10-17T02:06:26.138Z,18.43
2018-10-17T02:08:54.138Z,17.83
2018-10-17T02:11:22.096Z,17.10
2018-10-17T02:13:50.058Z,17.80
2018-10-17T02:16:18.015Z,17.87
2018-10-17T02:18:45.986Z,17.83
2018-10-17T02:21:14.177Z,18.90
2018-10-17T02:23:42.122Z,18.73
2018-10-17T02:26:10.099Z,18.10
2018-10-17T02:28:38.060Z,17.63
2018-10-17T02:31:06.101Z,17.93
2018-10-17T02:33:34.035Z,18.60
2018-10-17T02:36:01.975Z,18.13
2018-10-17T02:38:29.982Z,19.43
2018-10-17T02:40:57.983Z,18.37
2018-10-17T02:43:25.927Z,18.23
2018-10-17T02:45:53.987Z,17.20
2018-10-17T02:48:21.919Z,18.00
2018-10-17T02:50:49.911Z,18.27
2018-10-17T02:53:17.934Z,17.63
2018-10-17T02:55:45.823Z,17.67
2018-10-17T02:58:17.180Z,18.13
2018-10-17T03:00:45.135Z,18.50
2018-10-17T03:03:13.403Z,18.77
2018-10-17T03:05:41.351Z,18.40
2018-10-17T03:08:09.415Z,18.03
2018-10-17T03:10:37.711Z,18.00
2018-10-17T03:13:05.686Z,19.10
2018-10-17T03:15:33.663Z,17.70
2018-10-17T03:18:01.632Z,19.70
2018-10-17T03:20:29.595Z,19.10
2018-10-17T03:22:57.614Z,18.87
2018-10-17T03:25:25.524Z,19.00
2018-10-17T03:27:53.581Z,18.00
2018-10-17T03:30:21.459Z,18.20
2018-10-17T03:32:49.760Z,17.23
2018-10-17T03:35:17.801Z,19.13
2018-10-17T03:37:45.686Z,19.63
2018-10-17T03:40:13.691Z,18.90
2018-10-17T03:42:41.669Z,19.80
2018-10-17T03:45:09.661Z,18.87
2018-10-17T03:47:37.628Z,17.83
2018-10-17T03:50:05.879Z,18.63
2018-10-17T03:52:33.860Z,18.53
2018-10-17T03:55:01.883Z,19.40
2018-10-17T03:57:29.840Z,18.63
2018-10-17T03:59:57.788Z,19.67
2018-10-17T04:02:26.006Z,20.17
2018-10-17T04:04:54.027Z,20.30
2018-10-17T04:07:21.937Z,18.97
2018-10-17T04:09:49.948Z,20.03
2018-10-17T04:12:17.911Z,19.50
2018-10-17T04:14:45.912Z,18.33
2018-10-17T04:17:13.948Z,19.13
2018-10-17T04:19:41.898Z,18.50
2018-10-17T04:22:09.919Z,20.87
2018-10-17T04:24:37.906Z,18.93
2018-10-17T04:27:10.969Z,19.43
2018-10-17T04:29:38.915Z,18.43
2018-10-17T04:32:06.928Z,18.50
2018-10-17T04:34:34.943Z,18.40
2018-10-17T04:37:02.918Z,20.10
2018-10-17T04:39:30.847Z,19.37
2018-10-17T04:41:58.819Z,19.93
2018-10-17T04:44:26.775Z,19.13
2018-10-17T04:46:54.748Z,19.27
2018-10-17T04:49:22.728Z,19.20
2018-10-17T04:51:50.684Z,18.23
2018-10-17T04:54:18.729Z,19.30
2018-10-17T04:56:46.700Z,19.83
2018-10-17T04:59:14.940Z,20.70
2018-10-17T05:01:42.892Z,18.10
2018-10-17T05:04:10.848Z,17.80
2018-10-17T05:06:38.873Z,19.90
2018-10-17T05:09:09.868Z,19.63
2018-10-17T05:11:38.270Z,20.10
2018-10-17T05:14:06.452Z,19.73
2018-10-17T05:16:38.423Z,19.27
2018-10-17T05:19:06.443Z,18.63
2018-10-17T05:21:34.403Z,18.70
2018-10-17T05:24:02.412Z,20.30
2018-10-17T05:26:30.484Z,18.00
2018-10-17T05:28:58.522Z,20.00
2018-10-17T05:31:26.599Z,19.60
2018-10-17T05:33:54.655Z,19.63
2018-10-17T05:36:22.892Z,19.93
2018-10-17T05:38:50.877Z,19.77
2018-10-17T05:41:18.835Z,20.13
2018-10-17T05:43:46.797Z,19.77
2018-10-17T05:46:14.755Z,19.90
2018-10-17T05:48:42.800Z,21.47
2018-10-17T05:51:10.794Z,21.10
2018-10-17T05:53:38.751Z,18.60
2018-10-17T05:56:06.719Z,18.80
2018-10-17T05:58:34.791Z,19.97
2018-10-17T06:01:02.817Z,20.10
2018-10-17T06:03:30.723Z,20.80
2018-10-17T06:05:58.695Z,19.13
2018-10-17T06:08:26.651Z,21.40
2018-10-17T06:10:54.646Z,19.53
2018-10-17T06:13:22.609Z,20.20
2018-10-17T06:15:50.559Z,19.93
2018-10-17T06:19:21.930Z,19.93
2018-10-17T06:21:49.899Z,18.97
2018-10-17T06:24:17.947Z,19.87
2018-10-17T06:26:45.901Z,21.30
2018-10-17T06:29:13.957Z,23.03
2018-10-17T06:31:41.836Z,19.67
2018-10-17T06:34:09.919Z,20.90
2018-10-17T06:36:37.988Z,20.33
2018-10-17T06:39:07.856Z,20.77
2018-10-17T06:41:35.835Z,19.77
2018-10-17T06:44:04.271Z,20.17
2018-10-17T06:46:32.180Z,19.70
2018-10-17T06:49:00.164Z,20.80
2018-10-17T06:51:28.120Z,20.70
2018-10-17T06:53:56.276Z,21.00
2018-10-17T06:56:24.100Z,21.80
2018-10-17T06:58:52.098Z,20.57
2018-10-17T07:01:20.079Z,22.07
2018-10-17T07:03:48.055Z,22.00
2018-10-17T07:06:16.003Z,23.57
2018-10-17T07:08:43.992Z,23.00
2018-10-17T07:11:12.010Z,24.03
2018-10-17T07:13:39.967Z,22.97
2018-10-17T07:16:07.916Z,22.37
2018-10-17T07:18:35.891Z,21.37
2018-10-17T07:21:03.859Z,21.00
2018-10-17T07:23:31.818Z,21.97
2018-10-17T07:25:59.796Z,22.70
2018-10-17T07:28:28.039Z,23.13
2018-10-17T07:30:56.026Z,33.47
2018-10-17T07:33:23.959Z,24.20
2018-10-17T07:35:52.026Z,24.00
2018-10-17T07:38:19.924Z,23.47
2018-10-17T07:40:47.883Z,23.57
2018-10-17T07:43:16.103Z,23.87
2018-10-17T07:45:44.118Z,23.20
2018-10-17T07:48:12.044Z,24.23
2018-10-17T07:50:40.064Z,22.80
2018-10-17T07:53:08.128Z,23.90
2018-10-17T07:55:36.007Z,24.43
2018-10-17T07:58:03.988Z,24.70
2018-10-17T08:00:32.034Z,24.23
2018-10-17T08:02:59.931Z,24.17
2018-10-17T08:05:27.884Z,24.87
2018-10-17T08:07:55.900Z,24.90
2018-10-17T08:10:23.872Z,26.37
2018-10-17T08:12:51.868Z,26.07
2018-10-17T08:15:19.843Z,25.37
2018-10-17T08:17:47.793Z,25.27
2018-10-17T08:20:15.751Z,27.17
2018-10-17T08:22:43.775Z,25.77
2018-10-17T08:25:12.614Z,25.07
2018-10-17T08:27:41.089Z,26.00
2018-10-17T08:30:09.866Z,25.33
2018-10-17T08:32:38.364Z,26.57
2018-10-17T08:35:06.547Z,24.90
2018-10-17T08:37:34.909Z,26.03
2018-10-17T08:40:02.551Z,27.40
2018-10-17T08:42:30.596Z,29.47
2018-10-17T08:44:58.644Z,26.97
2018-10-17T08:47:26.567Z,27.33
2018-10-17T08:49:54.518Z,26.67
2018-10-17T08:52:22.899Z,26.90
2018-10-17T08:54:50.870Z,26.30
2018-10-17T08:57:18.833Z,26.20
2018-10-17T08:59:46.790Z,27.03
2018-10-17T09:02:14.858Z,27.43
2018-10-17T09:04:42.731Z,25.73
2018-10-17T09:07:10.724Z,26.77
2018-10-17T09:09:38.690Z,25.83
2018-10-17T09:12:06.699Z,26.80
2018-10-17T09:14:34.588Z,24.63
2018-10-17T09:17:02.599Z,25.97
2018-10-17T09:19:30.618Z,25.60
2018-10-17T09:21:58.884Z,25.80
2018-10-17T09:24:26.499Z,26.00
2018-10-17T09:26:54.451Z,26.13
2018-10-17T09:29:22.403Z,27.43
2018-10-17T09:31:50.363Z,26.43
2018-10-17T09:34:18.627Z,26.30
2018-10-17T09:36:46.477Z,26.53
2018-10-17T09:39:14.456Z,25.87
2018-10-17T09:41:42.440Z,26.53
2018-10-17T09:44:10.399Z,24.87
2018-10-17T09:46:38.395Z,25.73
2018-10-17T09:49:06.385Z,26.20
2018-10-17T09:51:34.611Z,25.30
2018-10-17T09:54:02.684Z,28.23
2018-10-17T09:56:30.578Z,27.63
2018-10-17T09:58:58.547Z,25.80
2018-10-17T10:01:31.990Z,26.27
2018-10-17T10:04:00.021Z,23.73
2018-10-17T10:06:27.926Z,23.97
2018-10-17T10:08:55.879Z,23.97
2018-10-17T10:11:23.863Z,23.30
2018-10-17T10:13:51.834Z,22.77
2018-10-17T10:16:20.183Z,24.03
2018-10-17T10:18:48.159Z,23.30
2018-10-17T10:21:16.106Z,20.90
2018-10-17T10:23:44.176Z,20.87
2018-10-17T10:26:12.055Z,19.23
2018-10-17T10:28:40.096Z,20.17
2018-10-17T10:31:07.970Z,21.23
2018-10-17T10:33:35.948Z,21.27
2018-10-17T10:36:03.974Z,24.37
2018-10-17T10:38:31.886Z,22.60
2018-10-17T10:40:59.859Z,25.20
2018-10-17T10:43:27.814Z,24.40
2018-10-17T10:45:55.794Z,27.33
2018-10-17T10:48:23.759Z,29.23
2018-10-17T10:50:59.150Z,26.20
2018-10-17T10:53:27.083Z,36.17
2018-10-17T10:55:55.060Z,25.07
2018-10-17T10:58:23.209Z,23.43
2018-10-17T11:00:51.119Z,20.97
2018-10-17T11:03:19.107Z,21.50
2018-10-17T11:05:47.252Z,23.17
2018-10-17T11:08:15.128Z,20.90
2018-10-17T11:10:42.971Z,21.63
2018-10-17T11:13:10.919Z,19.00
2018-10-17T11:15:39.526Z,19.03
2018-10-17T11:18:07.500Z,19.07
2018-10-17T11:20:35.456Z,17.57
2018-10-17T11:23:06.865Z,18.90
2018-10-17T11:25:35.011Z,17.93
2018-10-17T11:28:02.984Z,19.00
2018-10-17T11:30:31.102Z,19.43
2018-10-17T11:32:59.125Z,19.50
2018-10-17T11:35:27.099Z,18.33
2018-10-17T11:37:55.111Z,27.63
2018-10-17T11:40:23.051Z,21.63
2018-10-17T11:42:50.992Z,20.97
2018-10-17T11:45:19.049Z,17.97
2018-10-17T11:47:46.937Z,18.83
2018-10-17T11:50:14.875Z,20.67
2018-10-17T11:52:42.832Z,18.13
2018-10-17T11:55:10.801Z,19.40
2018-10-17T11:57:38.774Z,15.27
2018-10-17T12:00:09.135Z,15.93
2018-10-17T12:02:37.116Z,17.63
2018-10-17T12:05:07.118Z,17.00
2018-10-17T12:07:34.758Z,16.30
2018-10-17T12:10:02.732Z,16.30
2018-10-17T12:12:30.696Z,17.37
2018-10-17T12:14:58.713Z,17.03
2018-10-17T12:17:26.683Z,17.43
2018-10-17T12:19:54.772Z,17.17
2018-10-17T12:22:26.611Z,15.97
2018-10-17T12:24:54.559Z,16.30
2018-10-17T12:27:22.576Z,16.10
2018-10-17T12:29:50.536Z,14.90
2018-10-17T12:32:18.494Z,15.73
2018-10-17T12:34:46.743Z,16.70
2018-10-17T12:37:14.698Z,16.90
2018-10-17T12:39:42.798Z,16.30
2018-10-17T12:42:10.700Z,18.23
2018-10-17T12:44:38.650Z,16.27
2018-10-17T12:47:06.688Z,17.43
2018-10-17T12:49:34.645Z,16.70
2018-10-17T12:52:02.632Z,17.23
2018-10-17T12:54:30.607Z,16.70
2018-10-17T12:56:58.600Z,16.93
2018-10-17T12:59:27.063Z,16.23
2018-10-17T13:01:55.024Z,17.00
2018-10-17T13:04:23.002Z,16.63
2018-10-17T13:06:51.045Z,17.43
2018-10-17T13:09:19.365Z,14.50
2018-10-17T13:11:47.348Z,14.73
2018-10-17T13:14:15.335Z,14.53
2018-10-17T13:16:43.315Z,16.70
2018-10-17T13:19:11.301Z,15.30
2018-10-17T13:21:39.244Z,16.53
2018-10-17T13:24:07.237Z,16.03
2018-10-17T13:26:35.254Z,17.57
2018-10-17T13:29:03.437Z,15.03
2018-10-17T13:31:31.406Z,15.70
2018-10-17T13:33:59.366Z,16.63
2018-10-17T13:36:27.366Z,15.43
2018-10-17T13:38:55.319Z,15.53
2018-10-17T13:41:23.506Z,15.67
2018-10-17T13:43:51.499Z,15.67
2018-10-17T13:46:19.698Z,29.73
2018-10-17T13:48:47.727Z,16.60
2018-10-17T13:51:15.676Z,17.20
2018-10-17T13:53:46.899Z,15.97
2018-10-17T13:56:14.868Z,15.57
2018-10-17T13:58:42.832Z,16.23
2018-10-17T14:01:11.301Z,19.47
2018-10-17T14:03:39.268Z,20.90
2018-10-17T14:06:07.283Z,16.70
2018-10-17T14:08:39.242Z,21.50
2018-10-17T14:11:07.907Z,24.10
2018-10-17T14:13:35.926Z,16.53
2018-10-17T14:16:03.941Z,16.07
2018-10-17T14:18:31.909Z,15.23
2018-10-17T14:20:59.916Z,14.90
2018-10-17T14:23:27.916Z,15.07
2018-10-17T14:25:55.908Z,14.60
2018-10-17T14:28:23.903Z,14.20
2018-10-17T14:30:51.867Z,15.43
2018-10-17T14:33:19.847Z,17.43
2018-10-17T14:35:47.803Z,17.27
2018-10-17T14:38:15.858Z,18.40
2018-10-17T14:40:44.212Z,17.60
2018-10-17T14:43:12.167Z,18.40
2018-10-17T14:45:40.159Z,18.53
2018-10-17T14:48:08.522Z,16.67
2018-10-17T14:50:36.497Z,16.70
2018-10-17T14:53:04.638Z,20.03
2018-10-17T14:55:32.586Z,18.07
2018-10-17T14:58:00.823Z,17.77
2018-10-17T15:00:28.788Z,18.57
2018-10-17T15:02:56.863Z,20.33
2018-10-17T15:05:24.832Z,18.93
2018-10-17T15:07:52.835Z,19.70
2018-10-17T15:10:20.891Z,19.80
2018-10-17T15:12:48.839Z,18.73
2018-10-17T15:15:16.869Z,19.40
2018-10-17T15:17:44.782Z,19.07
2018-10-17T15:20:12.742Z,19.23
2018-10-17T15:22:40.711Z,18.30
2018-10-17T15:25:08.663Z,18.53
2018-10-17T15:27:36.635Z,18.53
2018-10-17T15:30:05.782Z,21.10
2018-10-17T15:32:33.645Z,19.23
2018-10-17T15:35:01.679Z,19.17
2018-10-17T15:37:29.639Z,17.50
2018-10-17T15:39:57.607Z,19.80
2018-10-17T15:42:25.571Z,19.73
2018-10-17T15:44:53.565Z,18.53
2018-10-17T15:47:21.499Z,19.03
2018-10-17T15:49:49.483Z,18.80
2018-10-17T15:52:17.496Z,17.30
2018-10-17T15:54:45.818Z,18.63
2018-10-17T15:57:13.870Z,18.53
2018-10-17T15:59:41.885Z,19.00
2018-10-17T16:02:09.931Z,18.83
2018-10-17T16:04:37.864Z,18.23
2018-10-17T16:07:05.859Z,17.90
2018-10-17T16:09:33.819Z,18.63
2018-10-17T16:12:01.855Z,18.17
2018-10-17T16:14:29.747Z,18.20
2018-10-17T16:16:57.744Z,17.53
2018-10-17T16:19:25.681Z,19.10
2018-10-17T16:21:53.652Z,18.97
2018-10-17T16:24:21.639Z,18.30
2018-10-17T16:26:49.623Z,18.80
2018-10-17T16:29:17.904Z,19.03
2018-10-17T16:31:45.859Z,18.87
2018-10-17T16:34:13.815Z,19.27
2018-10-17T16:36:41.783Z,19.13
2018-10-17T16:39:11.198Z,20.43
2018-10-17T16:41:43.089Z,20.33
2018-10-17T16:44:11.221Z,22.03
2018-10-17T16:46:39.811Z,20.93
2018-10-17T16:49:07.785Z,21.00
2018-10-17T16:51:35.759Z,21.30
2018-10-17T16:54:03.891Z,21.77
2018-10-17T16:59:05.150Z,22.97
2018-10-17T17:01:33.146Z,24.07
2018-10-17T17:04:01.203Z,22.10
2018-10-17T17:06:29.207Z,22.20
2018-10-17T17:08:57.263Z,23.00
2018-10-17T17:11:25.414Z,23.67
2018-10-17T17:13:53.767Z,22.57
2018-10-17T17:16:21.810Z,23.03
2018-10-17T17:18:49.774Z,22.90
2018-10-17T17:21:17.934Z,23.00
2018-10-17T17:23:45.876Z,22.80
2018-10-17T17:26:13.908Z,22.43
2018-10-17T17:28:41.872Z,24.70
2018-10-17T17:31:09.849Z,24.20
2018-10-17T17:33:37.816Z,24.97
2018-10-17T17:36:06.432Z,23.47
2018-10-17T17:38:34.351Z,24.33
2018-10-17T17:41:02.303Z,23.60
2018-10-17T17:43:30.399Z,23.17
2018-10-17T17:45:58.421Z,25.70
2018-10-17T17:48:26.416Z,24.77
2018-10-17T17:50:54.384Z,23.87
2018-10-17T17:53:22.366Z,24.80
2018-10-17T17:55:50.420Z,25.20
2018-10-17T17:58:18.422Z,25.10
2018-10-17T18:00:46.323Z,25.73
2018-10-17T18:03:14.312Z,27.00
2018-10-17T18:05:42.291Z,26.80
2018-10-17T18:08:10.278Z,26.97
2018-10-17T18:10:38.260Z,28.73
2018-10-17T18:13:06.296Z,27.67
2018-10-17T18:15:34.284Z,28.57
2018-10-17T18:18:02.257Z,26.90
2018-10-17T18:20:30.330Z,27.23
2018-10-17T18:22:58.657Z,25.53
2018-10-17T18:25:26.646Z,26.80
2018-10-17T18:27:55.866Z,26.40
2018-10-17T18:30:23.770Z,25.83
2018-10-17T18:32:51.789Z,26.90
2018-10-17T18:35:19.754Z,27.47
2018-10-17T18:37:47.707Z,29.17
2018-10-17T18:40:15.714Z,27.70
2018-10-17T18:42:43.679Z,28.20
2018-10-17T18:45:11.626Z,27.43
2018-10-17T18:47:39.620Z,28.90
2018-10-17T18:50:07.762Z,29.33
2018-10-17T18:52:35.880Z,28.60
2018-10-17T18:55:04.183Z,27.27
2018-10-17T18:57:32.161Z,28.07
2018-10-17T19:00:00.143Z,27.90
2018-10-17T19:02:28.146Z,30.20
2018-10-17T19:04:56.103Z,30.67
2018-10-17T19:07:24.363Z,29.63
2018-10-17T19:09:52.363Z,31.07
2018-10-17T19:12:20.360Z,29.40
2018-10-17T19:14:48.378Z,29.07
2018-10-17T19:17:16.477Z,29.00
2018-10-17T19:19:44.326Z,29.23
2018-10-17T19:22:12.392Z,29.67
2018-10-17T19:24:40.383Z,30.10
2018-10-17T19:27:08.381Z,31.13
2018-10-17T19:29:36.357Z,30.53
2018-10-17T19:32:04.404Z,31.17
2018-10-17T19:34:32.351Z,30.57
2018-10-17T19:37:00.339Z,28.97
2018-10-17T19:39:28.320Z,29.67
2018-10-17T19:41:56.359Z,30.10
2018-10-17T19:44:24.233Z,30.33
2018-10-17T19:46:52.172Z,31.10
2018-10-17T19:49:20.139Z,30.07
2018-10-17T19:51:48.181Z,29.90
2018-10-17T19:54:16.143Z,30.67
2018-10-17T19:56:44.267Z,31.53
2018-10-17T19:59:15.827Z,32.10
2018-10-17T20:01:44.088Z,31.10
2018-10-17T20:04:12.051Z,29.73
2018-10-17T20:06:40.044Z,29.87
2018-10-17T20:09:08.949Z,31.60
2018-10-17T20:11:36.792Z,30.77
2018-10-17T20:14:04.925Z,31.13
2018-10-17T20:16:32.851Z,31.20
2018-10-17T20:19:00.843Z,31.13
2018-10-17T20:21:28.807Z,30.63
2018-10-17T20:23:56.782Z,31.57
2018-10-17T20:26:24.736Z,30.83
2018-10-17T20:28:52.679Z,31.20
2018-10-17T20:31:20.655Z,30.10
2018-10-17T20:33:48.614Z,31.83
2018-10-17T20:36:16.594Z,32.00
2018-10-17T20:38:44.601Z,32.23
2018-10-17T20:41:12.594Z,32.17
2018-10-17T20:43:40.808Z,32.40
2018-10-17T20:46:08.795Z,32.10
2018-10-17T20:48:36.795Z,33.07
2018-10-17T20:51:04.851Z,33.00
2018-10-17T20:53:32.831Z,33.37
2018-10-17T20:56:01.104Z,33.73
2018-10-17T20:58:29.025Z,34.43
2018-10-17T21:00:56.982Z,32.80
2018-10-17T21:03:25.088Z,32.77
2018-10-17T21:05:53.047Z,32.57
2018-10-17T21:08:21.103Z,33.73
2018-10-17T21:10:49.087Z,31.87
2018-10-17T21:13:17.051Z,32.77
2018-10-17T21:15:45.011Z,34.40
2018-10-17T21:18:13.113Z,33.40
2018-10-17T21:20:41.018Z,32.80
2018-10-17T21:23:08.983Z,32.20
2018-10-17T21:25:37.047Z,32.83
2018-10-17T21:28:06.187Z,33.73
2018-10-17T21:30:34.162Z,34.57
2018-10-17T21:33:02.112Z,34.10
2018-10-17T21:35:30.080Z,33.23
2018-10-17T21:37:58.066Z,34.23
2018-10-17T21:40:26.091Z,34.13
2018-10-17T21:42:54.059Z,33.50
2018-10-17T21:45:22.022Z,32.53
2018-10-17T21:47:50.042Z,34.27
2018-10-17T21:50:18.092Z,34.33
2018-10-17T21:52:46.432Z,35.73
2018-10-17T21:55:14.422Z,34.03
2018-10-17T21:57:42.399Z,34.17
2018-10-17T22:00:11.039Z,34.63
2018-10-17T22:02:39.509Z,33.83
2018-10-17T22:05:08.168Z,34.20
2018-10-17T22:07:36.366Z,33.30
2018-10-17T22:10:04.855Z,32.53
2018-10-17T22:12:32.824Z,32.40
2018-10-17T22:15:00.911Z,33.70
2018-10-17T22:17:29.811Z,36.20
2018-10-17T22:19:58.322Z,35.93
2018-10-17T22:22:26.751Z,34.73
2018-10-17T22:24:55.439Z,40.88
2018-10-17T22:27:23.624Z,40.80
2018-10-17T22:29:51.909Z,41.05
2018-10-17T22:32:19.887Z,40.25
2018-10-17T22:34:47.873Z,41.03
2018-10-17T22:37:15.849Z,41.00
2018-10-17T22:39:43.832Z,40.03
2018-10-17T22:42:11.812Z,40.20
2018-10-17T22:44:39.804Z,41.00
2018-10-17T22:47:11.483Z,40.83
2018-10-17T22:49:39.521Z,40.70
2018-10-17T22:52:07.493Z,40.53
2018-10-17T22:54:35.471Z,41.88
2018-10-17T22:57:03.655Z,41.02
2018-10-17T22:59:31.602Z,42.00
2018-10-17T23:01:59.615Z,42.80
2018-10-17T23:04:27.541Z,42.98
2018-10-17T23:06:55.503Z,43.15
2018-10-17T23:09:23.494Z,43.90
2018-10-17T23:11:51.462Z,45.58
2018-10-17T23:14:19.504Z,46.55
2018-10-17T23:16:47.492Z,45.38
2018-10-17T23:19:15.467Z,45.58
2018-10-17T23:24:18.153Z,46.80
2018-10-17T23:26:46.134Z,46.80
2018-10-17T23:29:14.117Z,44.77
2018-10-17T23:31:42.104Z,45.23
2018-10-17T23:34:10.112Z,46.23
2018-10-17T23:36:38.348Z,45.53
2018-10-17T23:39:08.147Z,45.10
2018-10-17T23:41:36.107Z,45.23
2018-10-17T23:44:04.124Z,45.58
2018-10-17T23:46:32.027Z,45.28
2018-10-17T23:51:33.339Z,45.10
2018-10-17T23:54:01.407Z,45.88
2018-10-17T23:56:36.171Z,45.37
2018-10-17T23:59:04.139Z,45.43
